Terminal Aerodrome Forecast
Issued by NWS

Home | Current Version | Previous Version | Text Only | Print | Product List | Glossary On
Versions: 1 2 3 4 5 6 7 8 9 10 11 12 13
237
FTUS43 KLSX 240526
TAFUIN
TAF
KUIN 240526Z 2406/2506 19007KT P6SM SCT250
     FM241500 20015G25KT P6SM SCT250
     FM242300 24012G17KT P6SM SCT250
     FM250200 32010KT P6SM SCT250=

USA.gov is the U.S. government's official web portal to all federal, state and local government web resources and services.